Impacts TAF Board INFO
FOR SITUATIONAL AWARENESS. NOT TO BE USED FOR FLIGHT PLANNING PURPOSES.
IDs:

KJAN - Jackson/Evers Intl, MS, US

Issued at 1720 UTC 24 Apr 2018
Updated at 2105 UTC 24 Apr 2018
Potential Impact None Slight Moderate High
Time2054Z 24/22Z 24/23Z 25/00Z 25/01Z 25/02Z 25/03Z 25/04Z 25/05Z 25/06Z 25/07Z 25/08Z 25/09Z 25/10Z>>
Type OBS PRVL PRVL PRVL PRVL PRVL PRVL PRVL PRVL PRVL PRVL PRVL PRVL PRVL
VIS 10 >6 >6 >6 >6 >6 >6 >6 >6 >6 >6 >6 >6 >6
CIG 49 35 35 35 35 35 35 35 35 35 35 35 -- --
Cover OVC BKN BKN BKN BKN BKN BKN BKN BKN BKN BKN BKN SCT SCT
FltCat VFR VFR VFR VFR VFR VFR VFR VFR VFR VFR VFR VFR VFR VFR
WX -- -- -- -- -- -- -- -- -- -- -- -- -- --
WDir 330 310 310 310 310 310 310 310 310 310 310 310 330 330
WSpd 9 6 6 6 6 6 6 6 6 6 6 6 3 3
WGst -- -- -- -- -- -- -- -- -- -- -- -- -- --

Raw TAF
KJAN 241720Z 2418/2518 31006KT P6SM SCT025 BKN035
  TEMPO 2418/2420 BKN025
  FM250900 33003KT P6SM SCT250


Raw METAR
KJAN 242054Z 33009KT 10SM FEW031 OVC049 20/13 A2999 RMK AO2 SLP151 T02000133 58008
KJAN 241954Z 35008KT 10SM OVC044 20/13 A3000 RMK AO2 SLP154 T02000128
KJAN 241854Z 33008KT 10SM BKN036 20/12 A3001 RMK AO2 SLP159 T02000122

METAR Board
Radar Display
Forecast Discussion

FOR SITUATIONAL AWARENESS. NOT TO BE USED FOR FLIGHT PLANNING PURPOSES.